Time;durP1;ratioP1;P1;durP2;ratioP2;P2;SDS_P1;SDS_P2;PMS_P1;PMS_P2;Temp;Humidity;BMP_temperature;BMP_pressure;BME280_temperature;BME280_humidity;BME280_pressure;Samples;Min_cycle;Max_cycle;Signal;HPM_P1;HPM_P2
2023/03/28 00:00:11;;;;;;;12.80;2.17;;;1.70;99.90;;;;;;5074493;28;20044;-32
2023/03/28 00:02:37;;;;;;;14.80;2.42;;;1.60;99.90;;;;;;5074317;28;20032;-35
2023/03/28 00:05:03;;;;;;;10.98;2.63;;;1.60;99.90;;;;;;5074258;28;20516;-32
2023/03/28 00:07:30;;;;;;;9.13;2.40;;;1.60;99.90;;;;;;5073894;28;20032;-32
2023/03/28 00:09:56;;;;;;;7.60;1.90;;;1.70;99.90;;;;;;5073786;28;20040;-31
2023/03/28 00:12:23;;;;;;;9.30;2.20;;;1.70;99.90;;;;;;5074185;28;20075;-31
2023/03/28 00:14:49;;;;;;;7.00;1.83;;;1.70;99.90;;;;;;5073946;28;20044;-32
2023/03/28 00:17:16;;;;;;;9.35;2.20;;;1.70;99.90;;;;;;5073773;28;20102;-32
2023/03/28 00:19:45;;;;;;;5.07;2.03;;;1.70;99.90;;;;;;5073812;28;20040;-32
2023/03/28 00:22:12;;;;;;;7.50;2.00;;;1.70;99.90;;;;;;5073268;28;20066;-32
2023/03/28 00:24:39;;;;;;;11.70;2.58;;;1.60;99.90;;;;;;5075049;28;20045;-31
2023/03/28 00:27:06;;;;;;;8.35;2.30;;;1.60;99.90;;;;;;5073593;28;20098;-32
2023/03/28 00:29:33;;;;;;;10.73;2.20;;;1.60;99.90;;;;;;5073389;28;20040;-32
2023/03/28 00:31:59;;;;;;;10.90;2.30;;;1.60;99.90;;;;;;5073950;28;20089;-32
2023/03/28 00:34:25;;;;;;;11.23;2.20;;;1.60;99.90;;;;;;5073378;28;20397;-32
2023/03/28 00:36:53;;;;;;;6.18;2.08;;;1.60;99.90;;;;;;5073597;28;20516;-32
2023/03/28 00:39:20;;;;;;;7.45;2.15;;;1.50;99.90;;;;;;5073444;28;20071;-31
2023/03/28 00:41:46;;;;;;;9.35;2.20;;;1.50;99.90;;;;;;5073290;28;20123;-32
2023/03/28 00:44:48;;;;;;;13.23;2.58;;;1.50;99.90;;;;;;5074956;28;20119;-32
2023/03/28 00:47:25;;;;;;;13.32;2.38;;;1.60;99.90;;;;;;5073273;28;20115;-32
2023/03/28 00:49:59;;;;;;;15.02;2.88;;;1.50;99.90;;;;;;5073494;28;20068;-31
2023/03/28 00:52:29;;;;;;;8.05;2.15;;;1.60;99.90;;;;;;5073279;28;20044;-31
2023/03/28 00:54:56;;;;;;;8.18;2.22;;;1.50;99.90;;;;;;5073467;28;20048;-31
2023/03/28 00:57:24;;;;;;;12.25;2.65;;;1.50;99.90;;;;;;5071801;28;20036;-32
2023/03/28 00:59:50;;;;;;;9.07;2.10;;;1.50;99.90;;;;;;5054708;28;20394;-32
2023/03/28 01:02:17;;;;;;;9.98;2.72;;;1.60;99.90;;;;;;5054435;28;20049;-32
2023/03/28 01:04:53;;;;;;;9.98;2.38;;;1.50;99.90;;;;;;5053553;28;20372;-32
2023/03/28 01:07:19;;;;;;;9.90;2.80;;;1.50;99.90;;;;;;5052742;28;20394;-32
2023/03/28 01:09:46;;;;;;;9.95;2.28;;;1.50;99.90;;;;;;5053175;28;20029;-32
2023/03/28 01:12:15;;;;;;;9.07;2.13;;;1.50;99.90;;;;;;5052947;28;20041;-32
2023/03/28 01:14:42;;;;;;;13.05;2.88;;;1.50;99.90;;;;;;5052848;28;20067;-32
2023/03/28 01:17:09;;;;;;;11.15;2.00;;;1.50;99.90;;;;;;5052789;28;20076;-31
2023/03/28 01:20:01;;;;;;;10.95;3.03;;;1.50;99.90;;;;;;5052791;28;20504;-32
2023/03/28 01:22:51;;;;;;;8.40;2.10;;;1.50;99.90;;;;;;5052650;28;20043;-32
2023/03/28 01:25:23;;;;;;;11.45;2.15;;;1.60;99.90;;;;;;5053044;28;20043;-32
2023/03/28 01:28:01;;;;;;;9.27;3.00;;;1.50;99.90;;;;;;5072703;28;20037;-32
2023/03/28 01:30:35;;;;;;;11.80;1.98;;;1.50;99.90;;;;;;5073174;28;20498;-32
2023/03/28 01:33:33;;;;;;;6.43;1.80;;;1.50;99.90;;;;;;5071744;28;20143;-32
2023/03/28 01:36:27;;;;;;;9.80;2.13;;;1.50;99.90;;;;;;5072372;28;20043;-32
2023/03/28 01:39:08;;;;;;;9.07;2.10;;;1.50;99.90;;;;;;5072791;28;20037;-32
2023/03/28 01:41:50;;;;;;;6.63;1.92;;;1.40;99.90;;;;;;5072500;28;20501;-32
2023/03/28 01:44:19;;;;;;;7.53;2.03;;;1.40;99.90;;;;;;5073496;28;20422;-32
2023/03/28 01:47:00;;;;;;;7.93;1.90;;;1.30;99.90;;;;;;5073716;28;20040;-32
2023/03/28 01:49:50;;;;;;;12.05;2.38;;;1.30;99.90;;;;;;5074218;28;20040;-32
2023/03/28 01:52:29;;;;;;;7.32;2.70;;;1.20;99.90;;;;;;5071811;28;20089;-35
2023/03/28 01:55:07;;;;;;;9.70;2.60;;;1.10;99.90;;;;;;5064988;28;20045;-34
2023/03/28 01:57:58;;;;;;;6.78;1.98;;;1.00;99.90;;;;;;5071154;28;20060;-35
2023/03/28 02:00:32;;;;;;;7.60;2.33;;;1.00;99.90;;;;;;5064764;28;20513;-34
2023/03/28 02:03:01;;;;;;;;;;;0.80;99.90;;;;;;5060914;28;20033;-35
2023/03/28 02:05:30;;;;;;;9.80;2.60;;;0.90;99.90;;;;;;5068461;28;19971;-34
2023/03/28 02:07:58;;;;;;;11.70;2.45;;;0.80;99.90;;;;;;5065108;28;20132;-34
2023/03/28 02:10:26;;;;;;;13.18;2.50;;;0.80;99.90;;;;;;5068322;28;20029;-34
2023/03/28 02:12:56;;;;;;;9.18;2.65;;;0.70;99.90;;;;;;5069688;28;20033;-34
2023/03/28 02:15:24;;;;;;;6.50;1.63;;;0.30;99.90;;;;;;5056927;28;20084;-34
2023/03/28 02:17:55;;;;;;;6.00;2.22;;;0.70;99.90;;;;;;5062698;28;20390;-35
2023/03/28 02:20:24;;;;;;;10.60;2.58;;;0.80;99.90;;;;;;5073508;28;20043;-34
2023/03/28 02:23:00;;;;;;;11.15;2.30;;;0.80;99.90;;;;;;5072692;28;20400;-35
2023/03/28 02:25:26;;;;;;;13.38;2.40;;;0.80;99.90;;;;;;5058804;28;20037;-34
2023/03/28 02:27:57;;;;;;;12.27;2.97;;;0.70;99.90;;;;;;5067403;28;20037;-34
2023/03/28 02:30:23;;;;;;;9.63;2.25;;;0.70;99.90;;;;;;5069068;28;20036;-34
2023/03/28 02:32:50;;;;;;;8.77;2.53;;;0.60;99.90;;;;;;5067983;28;20044;-34
2023/03/28 02:35:23;;;;;;;14.88;2.47;;;0.60;99.90;;;;;;5067152;28;20046;-34
2023/03/28 02:38:07;;;;;;;8.73;2.35;;;0.60;99.90;;;;;;5064898;28;20032;-35
2023/03/28 02:40:46;;;;;;;11.95;2.53;;;0.60;99.90;;;;;;5062936;28;20053;-35
2023/03/28 02:43:25;;;;;;;9.00;2.30;;;0.60;99.90;;;;;;5070267;28;20399;-34
2023/03/28 02:46:17;;;;;;;10.13;2.20;;;0.50;99.90;;;;;;5068785;28;20107;-34
2023/03/28 02:48:46;;;;;;;9.07;2.47;;;0.40;99.90;;;;;;5065980;28;20040;-34
2023/03/28 02:51:48;;;;;;;6.13;2.03;;;0.40;99.90;;;;;;5072034;28;20047;-34
2023/03/28 02:54:26;;;;;;;6.20;2.03;;;0.40;99.90;;;;;;5083005;28;20028;-34
2023/03/28 02:57:05;;;;;;;7.28;2.35;;;0.30;99.90;;;;;;5067306;28;20115;-34
2023/03/28 02:59:47;;;;;;;8.75;2.58;;;0.40;99.90;;;;;;5066779;28;20086;-35
2023/03/28 03:02:18;;;;;;;9.90;2.70;;;0.30;99.90;;;;;;5081796;28;20037;-34
2023/03/28 03:04:43;;;;;;;8.80;2.63;;;0.40;99.90;;;;;;5063798;28;20032;-35
2023/03/28 03:07:09;;;;;;;8.90;2.00;;;0.40;99.90;;;;;;5074993;28;20048;-35
2023/03/28 03:09:35;;;;;;;8.05;2.30;;;0.40;99.90;;;;;;5061947;28;20032;-33
2023/03/28 03:12:01;;;;;;;9.30;2.65;;;0.40;99.90;;;;;;5064686;28;20037;-34
2023/03/28 03:14:27;;;;;;;7.85;1.95;;;0.40;99.90;;;;;;5077940;28;20545;-35
2023/03/28 03:16:53;;;;;;;9.10;2.28;;;0.30;99.90;;;;;;5069269;28;20591;-34
2023/03/28 03:19:19;;;;;;;8.65;2.10;;;0.30;99.90;;;;;;5074957;28;20035;-34
2023/03/28 03:21:45;;;;;;;7.40;2.10;;;0.20;99.90;;;;;;5064385;28;20037;-35
2023/03/28 03:24:13;;;;;;;10.05;3.28;;;0.20;99.90;;;;;;5073606;28;20445;-35
2023/03/28 03:26:39;;;;;;;8.82;2.80;;;0.20;99.90;;;;;;5063646;28;20552;-34
2023/03/28 03:29:05;;;;;;;10.77;2.20;;;0.20;99.90;;;;;;5066873;28;20037;-34
2023/03/28 03:31:31;;;;;;;13.10;2.75;;;0.10;99.90;;;;;;5081684;28;20044;-35
2023/03/28 03:33:57;;;;;;;13.05;2.50;;;0.10;99.90;;;;;;5073551;28;20045;-35
2023/03/28 03:36:23;;;;;;;9.23;2.78;;;0.10;99.90;;;;;;5076680;28;20115;-35
2023/03/28 03:38:49;;;;;;;9.27;2.70;;;0.10;99.90;;;;;;5063916;28;20028;-35
2023/03/28 03:41:15;;;;;;;10.32;2.33;;;0.00;99.90;;;;;;5066088;28;20169;-35
2023/03/28 03:43:41;;;;;;;8.27;2.25;;;0.00;99.90;;;;;;5077874;28;20033;-35
2023/03/28 03:46:06;;;;;;;5.65;1.98;;;-0.10;99.90;;;;;;5061451;28;20048;-34
2023/03/28 03:48:32;;;;;;;16.73;3.20;;;-0.10;99.90;;;;;;5054522;28;20033;-35
2023/03/28 03:50:58;;;;;;;5.97;2.17;;;0.00;99.90;;;;;;5054968;28;20071;-35
2023/03/28 03:53:24;;;;;;;10.20;3.03;;;-0.10;99.90;;;;;;5067702;28;20033;-35
2023/03/28 03:55:50;;;;;;;13.10;2.50;;;-0.10;99.90;;;;;;5053612;28;20127;-35
2023/03/28 03:58:17;;;;;;;9.18;2.53;;;-0.10;99.90;;;;;;5063352;28;20124;-35
2023/03/28 04:00:45;;;;;;;7.10;2.30;;;-0.20;99.90;;;;;;5058730;28;20045;-35
2023/03/28 04:03:11;;;;;;;9.30;2.58;;;-0.20;99.90;;;;;;5063496;28;20478;-34
2023/03/28 04:05:37;;;;;;;7.38;2.22;;;-0.20;99.90;;;;;;5056161;28;20386;-35
2023/03/28 04:08:03;;;;;;;5.47;1.88;;;-0.20;99.90;;;;;;5064065;28;20037;-35
2023/03/28 04:10:29;;;;;;;7.50;2.53;;;-0.20;99.90;;;;;;5071235;28;20097;-35
2023/03/28 04:12:55;;;;;;;10.07;2.30;;;-0.20;99.90;;;;;;5071800;28;20406;-35
2023/03/28 04:15:21;;;;;;;8.70;2.38;;;-0.30;99.90;;;;;;5067998;28;20112;-35
2023/03/28 04:17:49;;;;;;;8.20;2.00;;;-0.20;99.90;;;;;;5063474;28;20044;-35
2023/03/28 04:20:16;;;;;;;6.38;2.28;;;-0.30;99.90;;;;;;5064729;28;20124;-35
2023/03/28 04:22:42;;;;;;;7.85;2.45;;;-0.30;99.90;;;;;;5064387;28;20072;-34
2023/03/28 04:25:08;;;;;;;12.18;2.67;;;-0.30;99.90;;;;;;5060556;28;20032;-35
2023/03/28 04:27:33;;;;;;;12.38;3.05;;;-0.40;99.90;;;;;;5060255;28;20431;-35
2023/03/28 04:30:00;;;;;;;7.78;2.33;;;-0.30;99.90;;;;;;5055295;28;20033;-35
2023/03/28 04:32:26;;;;;;;10.43;3.33;;;-0.30;99.90;;;;;;5063565;28;20401;-35
2023/03/28 04:34:52;;;;;;;8.93;2.42;;;-0.40;99.90;;;;;;5058167;28;20453;-33
2023/03/28 04:37:18;;;;;;;8.00;2.38;;;-0.40;99.90;;;;;;5059162;28;20032;-32
2023/03/28 04:39:46;;;;;;;9.98;2.38;;;-0.40;99.90;;;;;;5063300;28;20506;-33
2023/03/28 04:42:15;;;;;;;9.15;2.72;;;-0.30;99.90;;;;;;5067786;28;20075;-33
2023/03/28 04:44:41;;;;;;;13.15;2.25;;;-0.30;99.90;;;;;;5064214;28;20029;-33
2023/03/28 04:47:10;;;;;;;12.10;2.95;;;-0.30;99.90;;;;;;5059815;28;20561;-33
2023/03/28 04:49:37;;;;;;;7.97;2.47;;;-0.20;99.90;;;;;;5067690;28;20462;-32
2023/03/28 04:52:04;;;;;;;9.77;2.30;;;-0.30;99.90;;;;;;5063267;28;20368;-32
2023/03/28 04:54:29;;;;;;;8.20;2.60;;;-0.20;99.90;;;;;;5064250;28;20032;-33
2023/03/28 04:56:55;;;;;;;11.82;3.05;;;-0.20;99.90;;;;;;5066594;28;20044;-34
2023/03/28 04:59:21;;;;;;;9.52;2.60;;;-0.20;99.90;;;;;;5065062;28;20106;-33
2023/03/28 05:01:50;;;;;;;8.60;2.60;;;-0.10;99.90;;;;;;5059397;28;20090;-33
2023/03/28 05:04:21;;;;;;;11.32;2.88;;;-0.10;99.90;;;;;;5066602;28;20079;-33
2023/03/28 05:06:48;;;;;;;7.47;2.25;;;0.00;99.90;;;;;;5061606;28;20064;-33
2023/03/28 05:09:15;;;;;;;9.00;2.50;;;0.00;99.90;;;;;;5070882;28;20485;-33
2023/03/28 05:11:41;;;;;;;7.35;2.10;;;0.00;99.90;;;;;;5070082;28;20482;-33
2023/03/28 05:14:07;;;;;;;8.35;2.58;;;0.10;99.90;;;;;;5062608;28;20124;-34
2023/03/28 05:16:33;;;;;;;6.75;2.33;;;0.20;99.90;;;;;;5070810;28;20515;-36
2023/03/28 05:18:59;;;;;;;7.05;2.17;;;0.20;99.90;;;;;;5067494;28;20134;-33
2023/03/28 05:21:25;;;;;;;7.72;2.05;;;0.30;99.90;;;;;;5077220;28;20037;-33
2023/03/28 05:23:50;;;;;;;10.35;2.83;;;0.40;99.90;;;;;;5066553;28;20044;-33
2023/03/28 05:26:16;;;;;;;11.27;2.40;;;0.50;99.90;;;;;;5071179;28;20071;-33
2023/03/28 05:28:42;;;;;;;10.45;2.70;;;0.50;99.90;;;;;;5064582;28;20489;-33
2023/03/28 05:31:10;;;;;;;10.68;4.38;;;0.60;99.90;;;;;;5075437;28;20048;-34
2023/03/28 05:33:35;;;;;;;12.63;3.42;;;0.70;99.90;;;;;;5068631;28;20044;-34
2023/03/28 05:36:02;;;;;;;6.82;3.33;;;0.80;99.90;;;;;;5063439;28;20100;-34
2023/03/28 05:38:30;;;;;;;9.45;3.05;;;0.80;99.90;;;;;;5060608;28;20052;-34
2023/03/28 05:40:57;;;;;;;10.90;2.90;;;0.90;99.90;;;;;;5070511;28;20059;-34
2023/03/28 05:43:23;;;;;;;7.20;2.15;;;0.90;99.90;;;;;;5067862;28;20036;-34
2023/03/28 05:45:49;;;;;;;8.77;2.50;;;1.00;99.90;;;;;;5061899;28;20044;-34
2023/03/28 05:48:15;;;;;;;8.35;2.22;;;1.00;99.90;;;;;;5060000;28;20390;-34
2023/03/28 05:50:40;;;;;;;5.68;2.08;;;1.00;99.90;;;;;;5075029;28;20040;-34
2023/03/28 05:53:06;;;;;;;7.45;2.90;;;1.00;99.90;;;;;;5067500;28;20037;-34
2023/03/28 05:55:32;;;;;;;7.53;2.10;;;1.00;99.90;;;;;;5066067;28;20041;-34
2023/03/28 05:57:58;;;;;;;7.32;2.40;;;1.00;99.90;;;;;;5068398;28;20037;-34
2023/03/28 06:00:24;;;;;;;8.02;2.65;;;1.00;99.90;;;;;;5071692;28;20047;-34
2023/03/28 06:02:50;;;;;;;6.03;2.28;;;1.00;99.90;;;;;;5072916;28;20040;-35
2023/03/28 06:05:17;;;;;;;6.85;2.60;;;1.00;99.90;;;;;;5073762;28;20416;-35
2023/03/28 06:07:43;;;;;;;9.45;3.20;;;1.10;99.90;;;;;;5077654;28;20025;-35
2023/03/28 06:10:11;;;;;;;8.23;2.97;;;1.30;99.90;;;;;;5080492;28;20094;-34
2023/03/28 06:12:36;;;;;;;7.53;2.65;;;1.40;99.90;;;;;;5070056;28;20448;-34
2023/03/28 06:15:04;;;;;;;7.63;2.55;;;1.50;99.90;;;;;;5066390;28;20040;-34
2023/03/28 06:17:30;;;;;;;9.70;2.63;;;1.50;99.90;;;;;;5077207;28;20039;-35
2023/03/28 06:19:56;;;;;;;6.43;2.45;;;1.50;99.90;;;;;;5073307;28;20049;-34
2023/03/28 06:22:22;;;;;;;7.18;2.15;;;1.60;99.90;;;;;;5075754;28;20032;-35
2023/03/28 06:24:48;;;;;;;5.00;2.35;;;1.70;99.90;;;;;;5089630;28;20036;-34
2023/03/28 06:27:14;;;;;;;6.85;2.30;;;1.70;99.90;;;;;;5068481;28;20033;-35
2023/03/28 06:29:40;;;;;;;8.98;2.33;;;1.80;99.90;;;;;;5082998;28;20028;-34
2023/03/28 06:32:05;;;;;;;9.43;2.60;;;1.90;99.90;;;;;;5078868;28;20672;-35
2023/03/28 06:34:31;;;;;;;8.57;2.58;;;1.90;99.90;;;;;;5070137;28;20116;-35
2023/03/28 06:36:58;;;;;;;11.40;2.42;;;2.00;99.90;;;;;;5068424;28;20048;-35
2023/03/28 06:39:24;;;;;;;3.47;2.60;;;2.20;99.90;;;;;;5070279;28;20488;-35
2023/03/28 06:41:50;;;;;;;6.82;2.50;;;2.30;99.90;;;;;;5079337;28;20066;-35
2023/03/28 06:44:16;;;;;;;10.55;3.00;;;2.30;99.90;;;;;;5088002;28;20047;-35
2023/03/28 06:46:41;;;;;;;7.78;2.50;;;2.40;99.90;;;;;;5072194;28;20551;-35
2023/03/28 06:49:07;;;;;;;11.23;3.28;;;2.40;99.90;;;;;;5071646;28;20141;-35
2023/03/28 06:51:33;;;;;;;8.88;2.60;;;2.40;99.90;;;;;;5079303;28;20090;-35
2023/03/28 06:53:59;;;;;;;6.60;2.85;;;2.40;99.90;;;;;;5075776;28;20044;-35
2023/03/28 06:56:25;;;;;;;6.32;2.95;;;2.50;99.90;;;;;;5062247;28;20037;-35
2023/03/28 06:58:51;;;;;;;6.63;3.38;;;2.60;99.90;;;;;;5065777;28;20090;-35
2023/03/28 07:01:17;;;;;;;8.13;3.00;;;2.70;99.90;;;;;;5056384;28;20091;-35
2023/03/28 07:03:43;;;;;;;10.02;3.10;;;2.70;99.90;;;;;;5061963;28;20062;-35
2023/03/28 07:06:10;;;;;;;6.15;2.53;;;2.90;99.90;;;;;;5063888;28;20029;-35
2023/03/28 07:08:36;;;;;;;5.97;2.80;;;3.00;99.90;;;;;;5067066;28;20041;-35
2023/03/28 07:11:03;;;;;;;9.85;2.85;;;3.20;99.90;;;;;;5063872;28;20544;-35
2023/03/28 07:13:28;;;;;;;9.23;2.50;;;3.30;99.90;;;;;;5074923;28;20044;-35
2023/03/28 07:16:06;;;;;;;6.47;2.30;;;3.30;99.90;;;;;;5071253;28;20515;-35
2023/03/28 07:18:32;;;;;;;9.35;3.10;;;3.40;99.90;;;;;;5061770;28;20044;-35
2023/03/28 07:20:58;;;;;;;6.93;2.55;;;3.50;99.90;;;;;;5065281;28;20041;-35
2023/03/28 07:23:24;;;;;;;10.30;3.60;;;3.60;99.90;;;;;;5072807;28;20045;-35
2023/03/28 07:25:53;;;;;;;11.10;3.40;;;3.70;99.90;;;;;;5073195;28;20033;-35
2023/03/28 07:28:18;;;;;;;10.25;3.08;;;3.80;99.90;;;;;;5061282;28;20066;-35
2023/03/28 07:30:45;;;;;;;8.20;3.55;;;3.90;99.90;;;;;;5067486;28;20041;-35
2023/03/28 07:33:10;;;;;;;10.55;3.05;;;4.10;99.90;;;;;;5070950;28;20036;-35
2023/03/28 07:35:39;;;;;;;11.90;3.10;;;4.10;99.90;;;;;;5064423;28;20147;-33
2023/03/28 07:38:05;;;;;;;5.93;2.90;;;4.10;99.90;;;;;;5073118;28;20041;-34
2023/03/28 07:40:31;;;;;;;8.25;3.08;;;4.20;99.90;;;;;;5070511;28;20049;-33
2023/03/28 07:42:57;;;;;;;7.55;2.80;;;4.30;99.90;;;;;;5059927;28;20051;-33
2023/03/28 07:45:22;;;;;;;7.20;3.13;;;4.30;99.90;;;;;;5066255;28;20039;-33
2023/03/28 07:47:48;;;;;;;5.05;3.15;;;4.40;99.90;;;;;;5064806;28;20074;-33
2023/03/28 07:50:16;;;;;;;5.05;2.70;;;4.40;99.90;;;;;;5066991;28;20040;-33
2023/03/28 07:52:44;;;;;;;6.15;3.10;;;4.50;99.90;;;;;;5072638;28;20037;-34
2023/03/28 07:55:16;;;;;;;6.97;3.03;;;4.50;99.90;;;;;;5069892;28;20680;-33
2023/03/28 07:57:44;;;;;;;8.23;3.10;;;4.70;99.90;;;;;;5070106;28;20094;-33
2023/03/28 08:00:11;;;;;;;9.85;3.17;;;4.80;99.90;;;;;;5063260;28;20029;-34
2023/03/28 08:02:40;;;;;;;6.80;3.80;;;4.90;99.90;;;;;;5056656;28;20041;-33
2023/03/28 08:05:06;;;;;;;8.88;3.90;;;5.00;99.90;;;;;;5062285;28;20056;-34
2023/03/28 08:07:33;;;;;;;9.15;3.63;;;5.30;99.90;;;;;;5068260;28;20037;-34
2023/03/28 08:09:59;;;;;;;9.52;3.10;;;5.40;99.90;;;;;;5058812;28;20065;-36
2023/03/28 08:12:26;;;;;;;4.63;2.65;;;5.50;99.90;;;;;;5073330;28;20038;-34
2023/03/28 08:14:52;;;;;;;7.85;2.88;;;5.60;99.90;;;;;;5060615;28;20037;-34
2023/03/28 08:17:17;;;;;;;7.28;3.15;;;5.70;99.90;;;;;;5072969;28;20092;-34
2023/03/28 08:19:44;;;;;;;6.47;2.60;;;6.00;99.90;;;;;;5066645;28;20033;-34
2023/03/28 08:22:11;;;;;;;4.20;2.92;;;6.10;99.90;;;;;;5068495;28;20486;-34
2023/03/28 08:24:37;;;;;;;9.10;3.03;;;6.20;99.90;;;;;;5068410;28;20047;-34
2023/03/28 08:27:03;;;;;;;10.20;2.55;;;6.30;99.90;;;;;;5074277;28;20029;-34
2023/03/28 08:29:30;;;;;;;4.57;2.17;;;6.20;99.90;;;;;;5075370;28;20028;-34
2023/03/28 08:31:56;;;;;;;6.38;2.50;;;6.20;99.90;;;;;;5070637;28;20401;-34
2023/03/28 08:34:23;;;;;;;4.93;2.53;;;6.40;99.90;;;;;;5053013;28;20040;-34
2023/03/28 08:36:48;;;;;;;7.93;3.03;;;6.50;99.90;;;;;;5079333;28;20036;-34
2023/03/28 08:39:14;;;;;;;9.32;2.58;;;6.60;99.90;;;;;;5075210;28;20047;-34
2023/03/28 08:41:56;;;;;;;7.75;2.97;;;6.70;99.90;;;;;;5061531;28;20040;-34
2023/03/28 08:44:43;;;;;;;5.22;2.38;;;6.80;99.90;;;;;;5080451;28;20044;-35
2023/03/28 08:47:30;;;;;;;6.45;2.20;;;6.90;99.90;;;;;;5066653;28;20029;-33
2023/03/28 08:50:02;;;;;;;7.63;2.42;;;7.10;99.90;;;;;;5054969;28;20041;-34
2023/03/28 08:52:29;;;;;;;6.63;2.30;;;7.30;99.90;;;;;;5070824;28;20190;-34
2023/03/28 08:55:23;;;;;;;4.35;2.08;;;7.30;99.90;;;;;;5055718;28;20045;-34
2023/03/28 08:57:52;;;;;;;4.57;2.35;;;7.40;99.90;;;;;;5062739;28;20094;-34
2023/03/28 09:00:29;;;;;;;5.25;2.40;;;7.30;99.90;;;;;;5059986;28;20028;-34
2023/03/28 09:02:56;;;;;;;4.75;2.20;;;7.30;99.90;;;;;;5069914;28;20036;-34
2023/03/28 09:05:41;;;;;;;3.65;2.10;;;7.40;99.90;;;;;;5077490;28;20533;-34
2023/03/28 09:08:27;;;;;;;6.00;2.35;;;7.60;99.90;;;;;;5071636;28;20036;-34
2023/03/28 09:11:11;;;;;;;4.07;2.20;;;8.00;99.90;;;;;;5053237;28;20044;-34
2023/03/28 09:13:54;;;;;;;6.43;2.10;;;8.40;99.90;;;;;;5060683;28;20032;-34
2023/03/28 09:16:28;;;;;;;4.65;2.00;;;8.90;99.90;;;;;;5076443;28;20040;-34
2023/03/28 09:19:04;;;;;;;3.67;2.22;;;9.40;99.90;;;;;;5057707;28;20054;-35
2023/03/28 09:21:50;;;;;;;4.32;1.60;;;9.40;99.90;;;;;;5069319;28;20073;-34
2023/03/28 09:24:21;;;;;;;2.55;1.95;;;9.60;99.90;;;;;;5064381;28;20033;-35
2023/03/28 09:27:00;;;;;;;4.82;1.20;;;9.50;99.90;;;;;;5068202;28;20060;-34
2023/03/28 09:29:27;;;;;;;9.30;2.28;;;9.60;99.90;;;;;;5058598;28;20072;-34
2023/03/28 09:32:04;;;;;;;4.78;1.90;;;9.70;99.90;;;;;;5069242;28;20592;-35
2023/03/28 09:34:42;;;;;;;4.88;1.30;;;9.50;99.90;;;;;;5073455;28;20036;-34
2023/03/28 09:37:34;;;;;;;6.43;1.60;;;9.20;99.90;;;;;;5068452;28;20055;-34
2023/03/28 09:40:13;;;;;;;5.40;1.58;;;9.00;99.90;;;;;;5077471;28;20520;-34
2023/03/28 09:43:01;;;;;;;6.25;1.50;;;9.20;99.90;;;;;;5066618;28;20102;-34
2023/03/28 09:45:53;;;;;;;4.55;1.27;;;9.80;99.90;;;;;;5060549;28;20116;-35
2023/03/28 09:48:26;;;;;;;4.80;1.10;;;10.20;99.90;;;;;;5056137;28;20517;-35
2023/03/28 09:50:52;;;;;;;2.58;0.90;;;10.30;99.90;;;;;;5069889;28;20119;-35
2023/03/28 09:53:32;;;;;;;3.15;1.20;;;10.60;99.90;;;;;;5063675;28;20160;-35
2023/03/28 09:56:22;;;;;;;3.55;0.80;;;10.80;78.40;;;;;;5067242;28;20049;-35
2023/03/28 09:58:55;;;;;;;4.55;1.30;;;10.90;65.00;;;;;;5075019;28;20040;-35
2023/03/28 10:01:36;;;;;;;3.95;1.00;;;11.00;87.60;;;;;;5071981;28;20036;-35
2023/03/28 10:04:13;;;;;;;3.17;1.15;;;11.10;68.70;;;;;;5062478;28;20041;-35
2023/03/28 10:06:40;;;;;;;1.80;1.20;;;11.50;89.90;;;;;;5072949;28;20039;-34
2023/03/28 10:09:17;;;;;;;4.05;1.23;;;11.40;85.90;;;;;;5070741;28;20528;-35
2023/03/28 10:11:47;;;;;;;3.58;0.98;;;11.60;74.10;;;;;;5073438;28;20386;-35
2023/03/28 10:14:33;;;;;;;2.00;1.10;;;12.10;72.40;;;;;;5076143;28;20041;-35
2023/03/28 10:17:27;;;;;;;4.95;1.20;;;12.10;64.50;;;;;;5070212;28;20099;-35
2023/03/28 10:20:04;;;;;;;2.92;1.00;;;12.10;63.40;;;;;;5068382;28;20119;-35
2023/03/28 10:22:36;;;;;;;3.33;1.00;;;12.00;62.60;;;;;;5075949;28;20047;-35
2023/03/28 10:25:05;;;;;;;2.95;1.00;;;11.90;63.60;;;;;;5069965;28;20036;-35
2023/03/28 10:27:33;;;;;;;1.60;1.00;;;11.90;62.00;;;;;;5073132;28;20040;-35
2023/03/28 10:30:18;;;;;;;3.00;1.00;;;11.90;60.60;;;;;;5068470;28;20540;-37
2023/03/28 10:32:44;;;;;;;3.97;1.27;;;11.80;55.80;;;;;;5064387;28;20076;-37
2023/03/28 10:35:29;;;;;;;6.28;1.40;;;11.80;59.90;;;;;;5066329;28;20429;-35
2023/03/28 10:38:02;;;;;;;2.80;1.75;;;12.20;60.30;;;;;;5073621;28;20119;-34
2023/03/28 10:40:29;;;;;;;3.50;1.58;;;12.40;59.70;;;;;;5078101;28;20032;-35
2023/03/28 10:42:56;;;;;;;4.40;1.52;;;12.30;59.40;;;;;;5073318;28;20072;-35
2023/03/28 10:45:29;;;;;;;3.70;1.25;;;11.90;59.10;;;;;;5069156;28;20041;-34
2023/03/28 10:47:58;;;;;;;2.53;1.23;;;12.20;59.00;;;;;;5078575;28;20067;-35
2023/03/28 10:50:29;;;;;;;3.13;1.27;;;12.50;60.30;;;;;;5059985;28;20037;-36
2023/03/28 10:53:27;;;;;;;2.15;1.25;;;13.00;60.20;;;;;;5070064;28;20041;-35
2023/03/28 10:56:17;;;;;;;2.70;1.30;;;13.00;57.30;;;;;;5062503;28;20094;-35
2023/03/28 10:59:01;;;;;;;2.63;1.50;;;12.60;57.90;;;;;;5057813;28;20076;-35
2023/03/28 11:01:42;;;;;;;4.80;1.70;;;11.80;57.80;;;;;;5065796;28;20127;-34
2023/03/28 11:04:39;;;;;;;3.25;1.30;;;11.30;58.80;;;;;;5070456;28;20048;-35
2023/03/28 11:07:42;;;;;;;3.88;1.63;;;10.70;56.40;;;;;;5065417;28;20044;-35
2023/03/28 11:10:20;;;;;;;2.30;1.38;;;10.30;59.10;;;;;;5065246;28;20043;-35
2023/03/28 11:13:12;;;;;;;4.20;1.55;;;10.10;60.50;;;;;;5066626;28;20044;-34
2023/03/28 11:15:52;;;;;;;3.58;1.58;;;10.10;62.50;;;;;;5055952;28;20090;-35
2023/03/28 11:18:52;;;;;;;4.07;1.77;;;10.10;62.30;;;;;;5068099;28;20102;-35
2023/03/28 11:21:46;;;;;;;4.70;1.70;;;10.20;61.50;;;;;;5067586;28;20135;-35
2023/03/28 11:24:43;;;;;;;4.95;1.80;;;11.00;62.40;;;;;;5067354;28;20048;-35
2023/03/28 11:27:36;;;;;;;2.90;1.58;;;11.60;57.70;;;;;;5071508;28;20115;-35
2023/03/28 11:30:08;;;;;;;2.88;1.35;;;11.90;58.90;;;;;;5060808;28;20112;-34
2023/03/28 11:32:43;;;;;;;3.65;1.30;;;11.70;58.60;;;;;;5066582;28;20044;-36
2023/03/28 11:35:17;;;;;;;2.58;1.50;;;11.50;58.00;;;;;;5063409;28;20415;-35
2023/03/28 11:38:14;;;;;;;2.78;1.40;;;11.40;58.30;;;;;;5074064;28;20487;-35
2023/03/28 11:41:08;;;;;;;4.25;1.50;;;11.30;58.10;;;;;;5077093;28;20055;-35
2023/03/28 11:43:42;;;;;;;3.05;2.03;;;11.10;56.80;;;;;;5076543;28;20387;-35
2023/03/28 11:46:17;;;;;;;3.00;1.80;;;11.30;58.90;;;;;;5069677;28;20036;-35
2023/03/28 11:49:12;;;;;;;5.32;1.50;;;11.10;59.10;;;;;;5068411;28;20097;-35
2023/03/28 11:51:44;;;;;;;3.78;1.67;;;11.50;58.40;;;;;;5068405;28;20032;-35
2023/03/28 11:54:29;;;;;;;3.67;1.60;;;11.50;59.10;;;;;;5065228;28;20040;-35
2023/03/28 11:57:05;;;;;;;5.00;1.70;;;11.60;56.70;;;;;;5070889;28;20045;-35
2023/03/28 11:59:53;;;;;;;3.30;1.35;;;11.90;56.30;;;;;;5065255;28;20379;-35
2023/03/28 12:02:31;;;;;;;2.55;1.33;;;11.70;57.40;;;;;;5063771;28;20075;-35
2023/03/28 12:05:22;;;;;;;3.70;1.70;;;11.70;55.80;;;;;;5062257;28;20064;-35
2023/03/28 12:08:19;;;;;;;4.45;1.45;;;11.80;57.30;;;;;;5065994;28;20035;-35
2023/03/28 12:10:50;;;;;;;5.07;1.70;;;11.90;56.80;;;;;;5065827;28;20534;-35
2023/03/28 12:13:19;;;;;;;2.97;1.73;;;12.30;56.80;;;;;;5059924;28;20101;-35
2023/03/28 12:16:00;;;;;;;4.40;1.90;;;12.20;56.00;;;;;;5056840;28;20402;-35
2023/03/28 12:18:37;;;;;;;4.63;1.83;;;12.00;55.70;;;;;;5062649;28;20033;-35
2023/03/28 12:21:38;;;;;;;6.03;2.38;;;11.90;55.60;;;;;;5066940;28;20049;-36
2023/03/28 12:24:13;;;;;;;2.58;1.83;;;12.50;52.90;;;;;;5060982;28;20048;-35
2023/03/28 12:26:53;;;;;;;7.00;2.40;;;13.00;54.10;;;;;;5060328;28;20448;-35
2023/03/28 12:29:31;;;;;;;3.22;2.00;;;13.70;58.80;;;;;;5068854;28;20041;-36
2023/03/28 12:32:20;;;;;;;3.22;1.70;;;14.00;59.10;;;;;;5071804;28;20036;-35
2023/03/28 12:35:11;;;;;;;3.67;2.05;;;14.60;57.70;;;;;;5062314;28;20457;-36
2023/03/28 12:38:00;;;;;;;4.03;2.50;;;14.50;56.50;;;;;;5066566;28;20478;-36
2023/03/28 12:40:53;;;;;;;4.68;2.63;;;14.30;57.40;;;;;;5047958;28;20608;-36
2023/03/28 12:43:38;;;;;;;4.33;2.10;;;14.30;56.60;;;;;;5064840;28;20467;-35
2023/03/28 12:46:06;;;;;;;5.10;2.50;;;14.40;56.20;;;;;;5062452;28;20104;-35
2023/03/28 12:48:43;;;;;;;3.67;2.35;;;14.40;57.10;;;;;;5070487;28;20081;-35
2023/03/28 12:51:17;;;;;;;4.40;2.60;;;14.70;56.10;;;;;;5065095;28;20474;-35
2023/03/28 12:53:45;;;;;;;5.63;2.40;;;14.80;55.90;;;;;;5064098;28;20043;-34
2023/03/28 12:56:14;;;;;;;3.25;2.00;;;14.30;56.10;;;;;;5070289;28;20045;-35
2023/03/28 12:58:40;;;;;;;4.82;2.30;;;14.20;56.50;;;;;;5059551;28;20037;-35
2023/03/28 13:01:06;;;;;;;4.97;2.30;;;14.10;56.20;;;;;;5067411;28;20063;-35
2023/03/28 13:03:51;;;;;;;6.40;2.00;;;13.80;56.10;;;;;;5060311;28;20029;-35
2023/03/28 13:06:47;;;;;;;5.95;1.85;;;13.40;54.90;;;;;;5071093;28;20033;-35
2023/03/28 13:09:31;;;;;;;4.00;1.77;;;13.20;55.30;;;;;;5062132;28;20433;-35
2023/03/28 13:12:32;;;;;;;4.78;2.35;;;13.10;55.60;;;;;;5063562;28;20478;-35
2023/03/28 13:14:58;;;;;;;6.15;2.25;;;13.40;56.20;;;;;;5060256;28;20514;-35
2023/03/28 13:17:26;;;;;;;4.78;1.90;;;12.80;55.40;;;;;;5070307;28;20375;-35
2023/03/28 13:20:24;;;;;;;4.35;2.00;;;12.90;56.20;;;;;;5063309;28;20390;-35